aviador You're here:

KHIB Decoded Metar

HIBBING in MN, USA
Report Time2018-07-20 16:08:00
UTC Time2018-07-20 16:38:35
Flight Rules vfr VFR
Wind350° at 06 kt
W.Decomp.*RWY 31: 4.7 kt HW 3.7 kt RCW
RWY 04: 3.7 kt HW 4.7 kt LCW
W.Rank350° ranks 11
Current wind is below 350° avg. (8.2)
Visibility9999 m
Phenomena:N/A
Clouds:Few 027 Hf
Expected CloudBase > 1,600 ft AGL from Temp-Dew spread
CeilingNone
Temp22°C (ISA +10)
Dew Point18°C (78% RH)
QNH1011 hPa
Density Alt2,825 ft
Elevation1,352 ft
Report Wrong Elevation
Raw Report
KHIB 201608Z AUTO 35006KT 10SM FEW027 22/18 A2986 RMK AO2
T02170178=

Extra information for KHIB:More info

Metar Taf Metar & Taf Last 4 Metars F.Rules Stats Wind Profile Meteogram Temp Stats Airport Information Weather charts Add Link Nearby VenuesMetar ALERT Operation Metar Decoded Social comments

AIRNAV info for KHIB